Time;durP1;ratioP1;P1;durP2;ratioP2;P2;SDS_P1;SDS_P2;PMS_P1;PMS_P2;Temp;Humidity;BMP_temperature;BMP_pressure;BME280_temperature;BME280_humidity;BME280_pressure;Samples;Min_cycle;Max_cycle;Signal;HPM_P1;HPM_P2
2022/01/31 00:01:59;;;;;;;0.30;0.10;;;2.10;99.90;;;;;;5063015;28;20464;-87
2022/01/31 00:04:26;;;;;;;0.30;0.10;;;2.10;99.90;;;;;;5077478;28;20439;-87
2022/01/31 00:06:54;;;;;;;0.30;0.10;;;2.10;99.90;;;;;;5095946;28;20430;-88
2022/01/31 00:09:22;;;;;;;0.30;0.10;;;2.10;99.90;;;;;;5089619;28;20459;-87
2022/01/31 00:11:56;;;;;;;0.30;0.10;;;2.10;99.90;;;;;;5077681;28;20439;-87
2022/01/31 00:14:33;;;;;;;0.30;0.10;;;2.10;99.90;;;;;;5066466;28;20570;-88
2022/01/31 00:17:01;;;;;;;0.30;0.10;;;2.10;99.90;;;;;;5055844;28;20521;-90
2022/01/31 00:19:29;;;;;;;0.30;0.10;;;2.10;99.90;;;;;;5055394;28;20522;-87
2022/01/31 00:21:56;;;;;;;0.30;0.10;;;2.00;99.90;;;;;;5058830;28;20446;-90
2022/01/31 00:24:23;;;;;;;0.30;0.10;;;2.00;99.90;;;;;;5056192;28;20471;-87
2022/01/31 00:26:50;;;;;;;0.30;0.10;;;2.00;99.90;;;;;;5063781;28;20444;-87
2022/01/31 00:29:17;;;;;;;0.30;0.10;;;2.00;99.90;;;;;;5071473;28;20440;-88
2022/01/31 00:31:44;;;;;;;0.30;0.10;;;2.00;99.90;;;;;;5064866;28;20923;-89
2022/01/31 00:34:13;;;;;;;0.30;0.10;;;1.90;99.90;;;;;;5068950;28;20463;-88
2022/01/31 00:36:39;;;;;;;0.30;0.10;;;1.90;99.90;;;;;;5072865;28;20443;-88
2022/01/31 00:39:07;;;;;;;0.30;0.10;;;1.90;99.90;;;;;;5066406;28;20478;-87
2022/01/31 00:41:34;;;;;;;0.30;0.10;;;1.90;99.90;;;;;;5065265;28;20463;-87
2022/01/31 00:44:12;;;;;;;0.50;0.43;;;2.00;99.90;;;;;;5063915;28;20467;-87
2022/01/31 00:46:42;;;;;;;0.30;0.10;;;1.90;99.90;;;;;;5068090;28;20449;-87
2022/01/31 00:49:16;;;;;;;0.30;0.10;;;2.00;99.90;;;;;;5069800;28;20600;-89
2022/01/31 00:51:44;;;;;;;0.30;0.10;;;2.00;99.90;;;;;;5070458;28;20446;-87
2022/01/31 00:54:11;;;;;;;0.30;0.10;;;2.00;99.90;;;;;;5066899;28;20205;-87
2022/01/31 00:56:38;;;;;;;0.30;0.10;;;2.00;99.90;;;;;;5063838;28;20454;-87
2022/01/31 00:59:05;;;;;;;0.30;0.10;;;2.10;99.90;;;;;;5072234;28;20612;-87
2022/01/31 01:01:32;;;;;;;0.30;0.10;;;2.00;99.90;;;;;;5067571;28;20850;-88
2022/01/31 01:03:59;;;;;;;0.30;0.10;;;2.00;99.90;;;;;;5072434;28;20248;-88
2022/01/31 01:06:26;;;;;;;0.30;0.10;;;2.00;99.90;;;;;;5066441;28;20257;-85
2022/01/31 01:08:54;;;;;;;0.30;0.10;;;2.00;99.90;;;;;;5066831;28;20207;-87
2022/01/31 01:11:21;;;;;;;0.30;0.10;;;2.10;99.90;;;;;;5069971;28;20439;-88
2022/01/31 01:13:48;;;;;;;0.30;0.20;;;2.10;99.90;;;;;;5068159;28;20437;-90
2022/01/31 01:16:15;;;;;;;0.30;0.10;;;2.10;99.90;;;;;;5061013;28;20273;-86
2022/01/31 01:18:42;;;;;;;1.27;1.07;;;2.00;99.90;;;;;;5072265;28;20259;-90
2022/01/31 01:21:09;;;;;;;0.30;0.10;;;2.00;99.90;;;;;;5069691;28;20452;-88
2022/01/31 01:23:36;;;;;;;0.30;0.10;;;1.80;99.90;;;;;;5061875;28;20882;-87
2022/01/31 01:26:04;;;;;;;0.30;0.20;;;1.80;99.90;;;;;;5063307;28;20929;-87
2022/01/31 01:28:31;;;;;;;0.30;0.10;;;1.80;99.90;;;;;;5063980;28;20467;-87
2022/01/31 01:30:58;;;;;;;0.80;0.40;;;1.80;99.90;;;;;;5061475;28;20448;-89
2022/01/31 01:33:25;;;;;;;0.30;0.10;;;1.70;99.90;;;;;;5071923;28;21063;-87
2022/01/31 01:35:54;;;;;;;0.30;0.10;;;1.80;99.90;;;;;;5068079;28;20475;-88
2022/01/31 01:38:28;;;;;;;0.30;0.10;;;1.80;99.90;;;;;;5070374;28;20443;-88
2022/01/31 01:40:57;;;;;;;0.30;0.10;;;1.80;99.90;;;;;;5063109;28;20456;-88
2022/01/31 01:43:26;;;;;;;0.30;0.10;;;1.70;99.90;;;;;;5078531;28;20930;-88
2022/01/31 01:45:54;;;;;;;0.30;0.10;;;1.70;99.90;;;;;;5090568;28;20492;-88
2022/01/31 01:48:22;;;;;;;0.30;0.10;;;1.60;99.90;;;;;;5083828;28;20462;-88
2022/01/31 01:50:49;;;;;;;0.30;0.10;;;1.60;99.90;;;;;;5087324;28;20847;-87
2022/01/31 01:53:16;;;;;;;0.30;0.10;;;1.70;99.90;;;;;;5072921;28;20455;-89
2022/01/31 01:55:45;;;;;;;0.30;0.10;;;1.70;99.90;;;;;;5052209;28;20533;-87
2022/01/31 01:58:15;;;;;;;0.30;0.10;;;1.70;99.90;;;;;;5057102;28;20490;-89
2022/01/31 02:00:50;;;;;;;0.30;0.20;;;1.70;99.90;;;;;;5057560;28;20731;-88
2022/01/31 02:03:17;;;;;;;0.30;0.10;;;1.70;99.90;;;;;;5052554;28;20460;-88
2022/01/31 02:05:45;;;;;;;0.30;0.10;;;1.70;99.90;;;;;;5054679;28;20456;-88
2022/01/31 02:08:13;;;;;;;0.30;0.10;;;1.70;99.90;;;;;;5065492;28;20223;-88
2022/01/31 02:10:40;;;;;;;0.30;0.10;;;1.70;99.90;;;;;;5061874;28;20463;-87
2022/01/31 02:13:10;;;;;;;0.30;0.10;;;1.60;99.90;;;;;;5067550;28;20579;-88
2022/01/31 02:15:37;;;;;;;0.30;0.10;;;1.60;99.90;;;;;;5066528;28;20510;-91
2022/01/31 02:18:06;;;;;;;0.30;0.10;;;1.60;99.90;;;;;;5067417;28;20648;-88
2022/01/31 02:20:38;;;;;;;0.30;0.10;;;1.60;99.90;;;;;;5064467;28;20605;-89
2022/01/31 02:23:07;;;;;;;0.30;0.10;;;1.50;99.90;;;;;;5074428;28;20446;-88
2022/01/31 02:25:34;;;;;;;0.30;0.10;;;1.50;99.90;;;;;;5064063;28;20470;-88
2022/01/31 02:28:01;;;;;;;0.30;0.10;;;1.50;99.90;;;;;;5063694;28;20543;-87
2022/01/31 02:30:28;;;;;;;0.30;0.10;;;1.40;99.90;;;;;;5063720;28;20497;-88
2022/01/31 02:32:55;;;;;;;0.30;0.10;;;1.40;99.90;;;;;;5063309;28;20503;-88
2022/01/31 02:35:22;;;;;;;0.30;0.10;;;1.40;99.90;;;;;;5066883;28;20249;-88
2022/01/31 02:37:51;;;;;;;0.30;0.10;;;1.50;99.90;;;;;;5069072;28;20209;-89
2022/01/31 02:40:18;;;;;;;0.50;0.50;;;1.40;99.90;;;;;;5052418;28;20282;-87
2022/01/31 02:42:45;;;;;;;0.30;0.10;;;1.40;99.90;;;;;;5065394;28;20447;-87
2022/01/31 02:45:12;;;;;;;0.30;0.10;;;1.50;99.90;;;;;;5060752;28;20448;-89
2022/01/31 02:47:42;;;;;;;0.30;0.17;;;1.50;99.90;;;;;;5057083;28;20211;-88
2022/01/31 02:50:13;;;;;;;0.30;0.10;;;1.60;99.90;;;;;;5064194;28;20240;-87
2022/01/31 02:52:46;;;;;;;0.30;0.15;;;1.50;99.90;;;;;;5062177;28;20446;-87
2022/01/31 02:55:15;;;;;;;0.30;0.10;;;1.50;99.90;;;;;;5064011;28;20228;-89
2022/01/31 02:57:42;;;;;;;0.30;0.10;;;1.50;99.90;;;;;;5064901;28;20499;-88
2022/01/31 03:00:11;;;;;;;0.30;0.10;;;1.60;99.90;;;;;;5064709;28;20580;-87
2022/01/31 03:02:39;;;;;;;0.30;0.10;;;1.60;99.90;;;;;;5061880;28;20261;-88
2022/01/31 03:05:06;;;;;;;0.30;0.10;;;1.60;99.90;;;;;;5070321;28;20211;-88
2022/01/31 03:07:36;;;;;;;0.30;0.10;;;1.60;99.90;;;;;;5064241;28;20469;-88
2022/01/31 03:10:03;;;;;;;0.30;0.10;;;1.70;99.90;;;;;;5069997;28;20444;-88
2022/01/31 03:12:32;;;;;;;0.30;0.10;;;1.60;99.90;;;;;;5070047;28;20487;-87
2022/01/31 03:14:59;;;;;;;0.30;0.10;;;1.60;99.90;;;;;;5062182;28;20466;-88
2022/01/31 03:17:25;;;;;;;0.30;0.10;;;1.60;99.90;;;;;;5063788;28;20463;-88
2022/01/31 03:19:54;;;;;;;0.30;0.10;;;1.50;99.90;;;;;;5070709;28;20446;-88
2022/01/31 03:22:23;;;;;;;0.30;0.10;;;1.60;99.90;;;;;;5094647;28;20457;-89
2022/01/31 03:24:49;;;;;;;0.30;0.20;;;1.60;99.90;;;;;;5082794;28;20460;-91
2022/01/31 03:27:17;;;;;;;0.30;0.10;;;1.60;99.90;;;;;;5086110;28;20439;-87
2022/01/31 03:29:45;;;;;;;0.30;0.10;;;1.50;99.90;;;;;;5070119;28;20459;-87
2022/01/31 03:32:12;;;;;;;0.30;0.10;;;1.50;99.90;;;;;;5051727;28;20478;-87
2022/01/31 03:34:39;;;;;;;0.30;0.10;;;1.50;99.90;;;;;;5049841;28;20649;-89
2022/01/31 03:37:06;;;;;;;0.30;0.10;;;1.50;99.90;;;;;;5054953;28;20226;-88
2022/01/31 03:39:33;;;;;;;0.30;0.20;;;1.60;99.90;;;;;;5050646;28;20441;-87
2022/01/31 03:42:00;;;;;;;0.30;0.10;;;1.60;99.90;;;;;;5053053;28;20563;-88
2022/01/31 03:44:27;;;;;;;0.30;0.10;;;1.60;99.90;;;;;;5060738;28;20492;-88
2022/01/31 03:46:55;;;;;;;0.30;0.10;;;1.60;99.90;;;;;;5066828;28;20468;-88
2022/01/31 03:49:22;;;;;;;0.30;0.10;;;1.60;99.90;;;;;;5065595;28;20459;-88
2022/01/31 03:51:49;;;;;;;0.30;0.10;;;1.50;99.90;;;;;;5064433;28;20475;-87
2022/01/31 03:54:17;;;;;;;0.30;0.10;;;1.60;99.90;;;;;;5069332;28;20446;-88
2022/01/31 03:56:44;;;;;;;0.30;0.10;;;1.60;99.90;;;;;;5069212;28;20510;-88
2022/01/31 03:59:11;;;;;;;0.30;0.10;;;1.60;99.90;;;;;;5063529;28;20605;-86
2022/01/31 04:01:38;;;;;;;0.30;0.10;;;1.60;99.90;;;;;;5061477;28;20472;-90
2022/01/31 04:04:10;;;;;;;0.30;0.10;;;1.60;99.90;;;;;;5066186;28;20506;-88
2022/01/31 04:06:38;;;;;;;0.30;0.10;;;1.60;99.90;;;;;;5054265;28;20457;-89
2022/01/31 04:09:05;;;;;;;0.30;0.10;;;1.50;99.90;;;;;;5065937;28;20453;-88
2022/01/31 04:11:32;;;;;;;0.30;0.10;;;1.50;99.90;;;;;;5062014;28;20800;-88
2022/01/31 04:13:59;;;;;;;0.30;0.10;;;1.50;99.90;;;;;;5063679;28;20447;-91
2022/01/31 04:16:26;;;;;;;0.30;0.10;;;1.50;99.90;;;;;;5062468;28;20482;-88
2022/01/31 04:18:53;;;;;;;0.30;0.10;;;1.50;99.90;;;;;;5069484;28;20484;-88
2022/01/31 04:21:22;;;;;;;0.30;0.10;;;1.60;99.90;;;;;;5067477;28;20205;-89
2022/01/31 04:23:50;;;;;;;0.30;0.10;;;1.60;99.90;;;;;;5061805;28;20197;-89
2022/01/31 04:26:18;;;;;;;0.30;0.10;;;1.60;99.90;;;;;;5066758;28;20459;-88
2022/01/31 04:28:47;;;;;;;0.30;0.10;;;1.70;99.90;;;;;;5064474;28;20490;-88
2022/01/31 04:31:34;;;;;;;0.30;0.10;;;1.70;99.90;;;;;;5055846;28;21037;-88
2022/01/31 04:34:01;;;;;;;0.30;0.10;;;1.70;99.90;;;;;;5058540;28;20474;-87
2022/01/31 04:36:30;;;;;;;0.30;0.10;;;1.70;99.90;;;;;;5067304;28;20471;-87
2022/01/31 04:38:57;;;;;;;0.30;0.10;;;1.80;99.90;;;;;;5066963;28;20439;-90
2022/01/31 04:41:24;;;;;;;0.30;0.10;;;1.80;99.90;;;;;;5061666;28;20488;-88
2022/01/31 04:43:53;;;;;;;0.30;0.10;;;1.70;99.90;;;;;;5064606;28;20459;-87
2022/01/31 04:46:20;;;;;;;0.30;0.10;;;1.60;99.90;;;;;;5065430;28;20447;-87
2022/01/31 04:48:47;;;;;;;0.30;0.10;;;1.70;99.90;;;;;;5067270;28;20648;-88
2022/01/31 04:51:14;;;;;;;0.30;0.10;;;1.70;99.90;;;;;;5073169;28;20457;-89
2022/01/31 04:53:43;;;;;;;0.30;0.10;;;1.70;99.90;;;;;;5070734;28;20986;-90
2022/01/31 04:56:10;;;;;;;0.30;0.10;;;1.70;99.90;;;;;;5072658;28;20533;-90
2022/01/31 04:58:37;;;;;;;0.30;0.20;;;1.70;99.90;;;;;;5073152;28;20456;-88
2022/01/31 05:01:04;;;;;;;0.30;0.10;;;1.60;99.90;;;;;;5075619;28;20872;-89
2022/01/31 05:03:31;;;;;;;0.30;0.10;;;1.70;99.90;;;;;;5074324;28;20479;-88
2022/01/31 05:05:59;;;;;;;0.30;0.10;;;1.70;99.90;;;;;;5069630;28;20456;-87
2022/01/31 05:08:28;;;;;;;0.30;0.10;;;1.70;99.90;;;;;;5049361;28;21000;-88
2022/01/31 05:10:56;;;;;;;0.30;0.10;;;1.70;99.90;;;;;;5043641;28;20461;-88
2022/01/31 05:13:23;;;;;;;0.30;0.10;;;1.70;99.90;;;;;;5055349;28;20455;-88
2022/01/31 05:15:53;;;;;;;0.40;0.40;;;1.70;99.90;;;;;;5051542;28;20781;-88
2022/01/31 05:18:21;;;;;;;0.30;0.10;;;1.70;99.90;;;;;;5055540;28;20470;-88
2022/01/31 05:20:48;;;;;;;0.30;0.20;;;1.70;99.90;;;;;;5062672;28;20582;-85
2022/01/31 05:23:15;;;;;;;0.30;0.10;;;1.60;99.90;;;;;;5069680;28;20506;-85
2022/01/31 05:25:42;;;;;;;0.30;0.10;;;1.70;99.90;;;;;;5066204;28;20458;-85
2022/01/31 05:28:11;;;;;;;0.30;0.17;;;1.70;99.90;;;;;;5069516;28;20485;-87
2022/01/31 05:30:38;;;;;;;0.30;0.10;;;1.60;99.90;;;;;;5058057;28;20957;-85
2022/01/31 05:33:05;;;;;;;0.30;0.10;;;1.70;99.90;;;;;;5058585;28;20502;-87
2022/01/31 05:35:32;;;;;;;0.30;0.10;;;1.60;99.90;;;;;;5058613;28;20496;-86
2022/01/31 05:37:59;;;;;;;0.30;0.10;;;1.60;99.90;;;;;;5063211;28;20981;-86
2022/01/31 05:40:28;;;;;;;0.40;0.30;;;1.60;99.90;;;;;;5068836;28;20529;-85
2022/01/31 05:42:55;;;;;;;0.30;0.10;;;1.50;99.90;;;;;;5063555;28;20475;-87
2022/01/31 05:45:23;;;;;;;0.30;0.10;;;1.50;99.90;;;;;;5065496;28;21211;-85
2022/01/31 05:47:50;;;;;;;0.30;0.10;;;1.60;99.90;;;;;;5063870;28;20548;-88
2022/01/31 05:50:18;;;;;;;0.30;0.10;;;1.60;99.90;;;;;;5067967;28;20447;-89
2022/01/31 05:52:45;;;;;;;0.30;0.10;;;1.60;99.90;;;;;;5063260;28;20444;-86
2022/01/31 05:55:13;;;;;;;0.30;0.10;;;1.60;99.90;;;;;;5060554;28;20934;-87
2022/01/31 05:57:42;;;;;;;0.30;0.10;;;1.70;99.90;;;;;;5066138;28;20537;-87
2022/01/31 06:00:11;;;;;;;0.30;0.10;;;1.60;99.90;;;;;;5070568;28;20468;-86
2022/01/31 06:02:40;;;;;;;0.30;0.10;;;1.70;99.90;;;;;;5065859;28;20463;-89
2022/01/31 06:05:07;;;;;;;0.30;0.10;;;1.80;99.90;;;;;;5069288;28;20436;-86
2022/01/31 06:07:35;;;;;;;0.30;0.13;;;1.70;99.90;;;;;;5070372;28;20468;-87
2022/01/31 06:10:02;;;;;;;0.30;0.10;;;1.70;99.90;;;;;;5062951;28;20464;-88
2022/01/31 06:12:29;;;;;;;0.40;0.20;;;1.80;99.90;;;;;;5068263;28;20451;-88
2022/01/31 06:14:56;;;;;;;0.30;0.10;;;1.80;99.90;;;;;;5067110;28;20945;-89
2022/01/31 06:17:23;;;;;;;0.30;0.10;;;1.80;99.90;;;;;;5067107;28;20544;-90
2022/01/31 06:19:52;;;;;;;0.30;0.10;;;1.90;99.90;;;;;;5068754;28;20528;-87
2022/01/31 06:22:19;;;;;;;0.30;0.10;;;1.90;99.90;;;;;;5068213;28;20440;-89
2022/01/31 06:24:46;;;;;;;0.63;0.63;;;1.80;99.90;;;;;;5064788;28;20478;-90
2022/01/31 06:27:12;;;;;;;0.30;0.10;;;1.80;99.90;;;;;;5071478;28;20525;-87
2022/01/31 06:29:39;;;;;;;0.30;0.10;;;1.90;99.90;;;;;;5065755;28;20467;-88
2022/01/31 06:32:07;;;;;;;0.30;0.10;;;1.90;99.90;;;;;;5067645;28;20473;-87
2022/01/31 06:34:34;;;;;;;0.30;0.10;;;1.90;99.90;;;;;;5059191;28;20440;-87
2022/01/31 06:37:04;;;;;;;0.30;0.10;;;1.90;99.90;;;;;;5081731;28;20513;-89
2022/01/31 06:39:31;;;;;;;0.30;0.10;;;1.80;99.90;;;;;;5075583;28;20457;-88
2022/01/31 06:41:58;;;;;;;2.43;2.33;;;1.80;99.90;;;;;;5082540;28;20506;-88
2022/01/31 06:44:25;;;;;;;0.30;0.10;;;1.80;99.90;;;;;;5079564;28;20494;-89
2022/01/31 06:46:52;;;;;;;0.30;0.20;;;1.80;99.90;;;;;;5053417;28;20513;-87
2022/01/31 06:49:19;;;;;;;0.30;0.10;;;1.80;99.90;;;;;;5066624;28;20444;-88
2022/01/31 06:51:46;;;;;;;0.30;0.10;;;1.80;99.90;;;;;;5067258;28;20515;-90
2022/01/31 06:54:15;;;;;;;0.30;0.10;;;1.80;99.90;;;;;;5051422;28;20482;-89
2022/01/31 06:56:44;;;;;;;0.30;0.10;;;1.80;99.90;;;;;;5050842;28;20516;-89
2022/01/31 06:59:11;;;;;;;0.30;0.10;;;1.80;99.90;;;;;;5051064;28;20537;-88
2022/01/31 07:01:37;;;;;;;0.30;0.20;;;1.70;99.90;;;;;;5048798;28;20460;-89
2022/01/31 07:04:05;;;;;;;0.33;0.17;;;1.80;99.90;;;;;;5031375;28;20463;-88
2022/01/31 07:06:32;;;;;;;0.67;0.67;;;1.80;99.90;;;;;;5031143;28;20453;-89
2022/01/31 07:09:00;;;;;;;0.30;0.17;;;1.70;99.90;;;;;;5032081;28;21078;-88
2022/01/31 07:11:32;;;;;;;0.30;0.10;;;1.80;99.90;;;;;;5031500;28;20468;-90
2022/01/31 07:14:02;;;;;;;0.30;0.10;;;1.70;99.90;;;;;;5031443;28;20795;-89
2022/01/31 07:16:29;;;;;;;0.30;0.20;;;1.70;99.90;;;;;;5048937;28;20483;-87
2022/01/31 07:19:03;;;;;;;0.30;0.10;;;1.70;99.90;;;;;;5050831;28;20444;-89
2022/01/31 07:21:35;;;;;;;0.30;0.10;;;1.70;99.90;;;;;;5049830;28;20464;-89
2022/01/31 07:24:18;;;;;;;0.30;0.20;;;1.80;99.90;;;;;;5050131;28;20539;-88
2022/01/31 07:26:47;;;;;;;0.30;0.10;;;1.90;99.90;;;;;;5049561;28;20448;-90
2022/01/31 07:29:14;;;;;;;0.30;0.10;;;1.90;99.90;;;;;;5050470;28;20513;-89
2022/01/31 07:31:42;;;;;;;0.30;0.10;;;2.00;99.90;;;;;;5050388;28;20443;-88
2022/01/31 07:34:09;;;;;;;0.30;0.10;;;1.90;99.90;;;;;;5045038;28;20525;-89
2022/01/31 07:36:37;;;;;;;0.87;0.43;;;1.80;99.90;;;;;;5030581;28;20799;-88
2022/01/31 07:39:05;;;;;;;0.30;0.10;;;1.90;99.90;;;;;;5030551;28;20441;-87
2022/01/31 07:41:32;;;;;;;0.30;0.10;;;1.90;99.90;;;;;;5031037;28;20515;-88
2022/01/31 07:44:01;;;;;;;0.30;0.10;;;1.90;99.90;;;;;;5049383;28;20791;-89
2022/01/31 07:46:28;;;;;;;0.30;0.10;;;1.90;99.90;;;;;;5050242;28;20466;-89
2022/01/31 07:48:55;;;;;;;0.30;0.10;;;1.90;99.90;;;;;;5051348;28;20462;-88
2022/01/31 07:51:23;;;;;;;0.30;0.10;;;1.90;99.90;;;;;;5050631;28;20428;-87
2022/01/31 07:53:50;;;;;;;0.40;0.40;;;1.90;99.90;;;;;;5061153;28;20514;-89
2022/01/31 07:56:18;;;;;;;0.30;0.10;;;2.00;99.90;;;;;;5047219;28;20473;-88
2022/01/31 07:58:45;;;;;;;0.83;0.70;;;2.00;99.90;;;;;;5049448;28;20550;-88
2022/01/31 08:01:14;;;;;;;0.30;0.10;;;2.10;99.90;;;;;;5069960;28;20849;-88
2022/01/31 08:03:42;;;;;;;0.30;0.20;;;2.10;99.90;;;;;;5053629;28;20549;-88
2022/01/31 08:06:09;;;;;;;0.30;0.10;;;2.10;99.90;;;;;;5070043;28;20447;-88
2022/01/31 08:08:36;;;;;;;0.30;0.10;;;2.20;99.90;;;;;;5039432;28;20849;-89
2022/01/31 08:11:05;;;;;;;4.20;1.30;;;2.20;99.90;;;;;;5046445;28;20926;-88
2022/01/31 08:13:33;;;;;;;0.30;0.10;;;2.10;99.90;;;;;;5070119;28;20505;-89
2022/01/31 08:16:09;;;;;;;0.43;0.43;;;2.00;99.90;;;;;;5087921;28;20482;-88
2022/01/31 08:18:39;;;;;;;0.30;0.10;;;2.10;99.90;;;;;;5091751;28;20226;-87
2022/01/31 08:21:07;;;;;;;0.37;0.23;;;2.00;99.90;;;;;;5081933;28;20514;-87
2022/01/31 08:23:34;;;;;;;0.30;0.20;;;2.00;99.90;;;;;;5072018;28;20436;-88
2022/01/31 08:26:02;;;;;;;0.30;0.10;;;2.00;99.90;;;;;;5063300;28;20485;-88
2022/01/31 08:28:37;;;;;;;0.30;0.20;;;1.90;99.90;;;;;;5058468;28;20511;-88
2022/01/31 08:31:13;;;;;;;0.30;0.10;;;1.90;99.90;;;;;;5055865;28;20502;-86
2022/01/31 08:33:47;;;;;;;0.77;0.77;;;1.90;99.90;;;;;;5053187;28;20493;-89
2022/01/31 08:36:14;;;;;;;0.30;0.20;;;1.90;99.90;;;;;;5054480;28;20433;-87
2022/01/31 08:38:43;;;;;;;0.30;0.10;;;1.90;99.90;;;;;;5054155;28;20480;-88
2022/01/31 08:41:11;;;;;;;0.70;0.60;;;2.00;99.90;;;;;;5040600;28;20557;-87
2022/01/31 08:43:39;;;;;;;0.30;0.20;;;2.10;99.90;;;;;;5051458;28;20497;-86
2022/01/31 08:46:08;;;;;;;0.30;0.20;;;2.10;99.90;;;;;;5041587;28;20492;-87
2022/01/31 08:48:35;;;;;;;0.30;0.10;;;2.20;99.90;;;;;;5043067;28;20445;-88
2022/01/31 08:51:05;;;;;;;0.30;0.10;;;2.20;99.90;;;;;;5068817;28;20464;-89
2022/01/31 08:53:33;;;;;;;0.30;0.10;;;2.30;99.90;;;;;;5065273;28;20544;-89
2022/01/31 08:56:02;;;;;;;0.40;0.30;;;2.40;99.90;;;;;;5072994;28;20448;-88
2022/01/31 08:58:29;;;;;;;0.30;0.13;;;2.50;99.90;;;;;;5067937;28;20476;-90
2022/01/31 09:01:01;;;;;;;0.30;0.10;;;2.50;99.90;;;;;;5064049;28;20474;-89
2022/01/31 09:03:43;;;;;;;0.40;0.30;;;2.60;99.90;;;;;;5068267;28;20451;-89
2022/01/31 09:06:13;;;;;;;0.30;0.10;;;2.60;99.90;;;;;;5064504;28;20443;-88
2022/01/31 09:08:41;;;;;;;0.30;0.10;;;2.60;99.90;;;;;;5071242;28;20470;-89
2022/01/31 09:11:09;;;;;;;0.30;0.10;;;2.60;99.90;;;;;;5072702;28;20464;-88
2022/01/31 09:13:36;;;;;;;0.30;0.20;;;2.60;99.90;;;;;;5066306;28;20597;-88
2022/01/31 09:16:04;;;;;;;0.30;0.10;;;2.60;99.90;;;;;;5069282;28;20454;-88
2022/01/31 09:18:32;;;;;;;0.30;0.10;;;2.70;99.90;;;;;;5057108;28;20224;-88
2022/01/31 09:20:59;;;;;;;0.30;0.10;;;2.70;99.90;;;;;;5061052;28;20982;-88
2022/01/31 09:23:29;;;;;;;0.30;0.10;;;2.80;99.90;;;;;;5048986;28;20466;-88
2022/01/31 09:25:57;;;;;;;0.30;0.10;;;2.90;99.90;;;;;;5065841;28;20449;-88
2022/01/31 09:28:25;;;;;;;0.30;0.10;;;2.90;99.90;;;;;;5056773;28;20518;-87
2022/01/31 09:30:53;;;;;;;0.87;0.87;;;3.00;99.90;;;;;;5065387;28;20467;-90
2022/01/31 09:33:21;;;;;;;0.30;0.10;;;3.00;99.90;;;;;;5071774;28;20989;-87
2022/01/31 09:35:48;;;;;;;0.30;0.10;;;3.00;99.90;;;;;;5065840;28;20451;-90
2022/01/31 09:38:17;;;;;;;0.30;0.10;;;2.90;99.90;;;;;;5065953;28;20491;-89
2022/01/31 09:40:46;;;;;;;0.30;0.10;;;2.90;99.90;;;;;;5055852;28;20486;-89
2022/01/31 09:46:03;;;;;;;0.30;0.10;;;3.00;99.90;;;;;;5055814;28;20430;-89
2022/01/31 09:48:32;;;;;;;0.30;0.10;;;3.00;99.90;;;;;;5052149;28;20459;-89
2022/01/31 09:51:00;;;;;;;0.30;0.13;;;2.90;99.90;;;;;;5055163;28;20856;-89
2022/01/31 09:53:28;;;;;;;0.30;0.10;;;2.90;99.90;;;;;;5067768;28;20507;-91
2022/01/31 09:55:56;;;;;;;0.37;0.20;;;2.90;99.90;;;;;;5054999;28;20199;-88
2022/01/31 09:58:29;;;;;;;0.30;0.10;;;2.90;99.90;;;;;;5053623;28;20529;-89
2022/01/31 10:01:07;;;;;;;0.30;0.10;;;2.90;99.90;;;;;;5064899;28;20972;-90
2022/01/31 10:03:35;;;;;;;0.30;0.10;;;2.80;99.90;;;;;;5046386;28;20467;-89
2022/01/31 10:06:02;;;;;;;0.30;0.10;;;2.80;99.90;;;;;;5051584;28;20488;-89
2022/01/31 10:08:30;;;;;;;0.30;0.10;;;2.80;99.90;;;;;;5056584;28;20460;-89
2022/01/31 10:11:10;;;;;;;0.30;0.20;;;2.80;99.90;;;;;;5054153;28;20527;-90
2022/01/31 10:16:30;;;;;;;0.30;0.10;;;2.60;99.90;;;;;;5040020;28;20449;-90
2022/01/31 10:19:06;;;;;;;0.30;0.20;;;2.60;99.90;;;;;;5032083;28;20468;-88
2022/01/31 10:21:33;;;;;;;0.30;0.10;;;2.60;99.90;;;;;;5034922;28;20507;-89
2022/01/31 10:24:00;;;;;;;0.40;0.20;;;2.50;99.90;;;;;;5051032;28;20984;-88
2022/01/31 10:26:30;;;;;;;0.30;0.10;;;2.50;99.90;;;;;;5031640;28;20441;-88
2022/01/31 10:29:11;;;;;;;0.30;0.10;;;2.50;99.90;;;;;;5031725;28;20445;-88
2022/01/31 10:31:38;;;;;;;0.30;0.10;;;2.60;99.90;;;;;;5050682;28;20444;-88
2022/01/31 10:34:18;;;;;;;0.30;0.10;;;2.60;99.90;;;;;;5063794;28;20461;-87
2022/01/31 10:36:45;;;;;;;0.30;0.10;;;2.70;99.90;;;;;;5070811;28;20804;-88
2022/01/31 10:43:10;;;;;;;0.40;0.30;;;2.70;99.90;;;;;;5070400;28;20867;-88
2022/01/31 10:50:49;;;;;;;0.30;0.10;;;2.80;99.90;;;;;;5040337;28;20494;-89
2022/01/31 10:53:16;;;;;;;0.30;0.20;;;2.80;99.90;;;;;;5031277;28;20567;-88
2022/01/31 10:55:53;;;;;;;0.37;0.23;;;2.90;99.90;;;;;;5032514;28;20457;-88
2022/01/31 10:58:22;;;;;;;0.30;0.10;;;2.90;99.90;;;;;;5037045;28;21014;-88
2022/01/31 11:00:50;;;;;;;0.30;0.10;;;2.90;99.90;;;;;;5038434;28;20496;-88
2022/01/31 11:03:30;;;;;;;0.30;0.10;;;2.80;99.90;;;;;;5050261;28;20789;-89
2022/01/31 11:05:58;;;;;;;0.30;0.10;;;2.90;99.90;;;;;;5040730;28;20461;-87
2022/01/31 11:08:25;;;;;;;0.30;0.10;;;2.90;99.90;;;;;;5041782;28;20583;-87
2022/01/31 11:10:58;;;;;;;0.30;0.10;;;2.90;99.90;;;;;;5050692;28;20451;-89
2022/01/31 11:13:27;;;;;;;0.30;0.10;;;2.90;99.90;;;;;;5050600;28;20498;-88
2022/01/31 11:15:55;;;;;;;0.30;0.10;;;2.90;99.90;;;;;;5050035;28;20497;-88
2022/01/31 11:18:23;;;;;;;0.30;0.20;;;2.90;99.90;;;;;;5050540;28;20484;-87
2022/01/31 11:20:54;;;;;;;0.40;0.20;;;2.90;99.90;;;;;;5050649;28;20559;-88
2022/01/31 11:23:22;;;;;;;0.30;0.20;;;2.90;99.90;;;;;;5033255;28;20466;-88
2022/01/31 11:25:54;;;;;;;0.30;0.23;;;2.90;99.90;;;;;;5030531;28;20448;-88
2022/01/31 11:28:22;;;;;;;0.30;0.13;;;2.90;99.90;;;;;;5056450;28;20529;-88
2022/01/31 11:30:51;;;;;;;0.30;0.10;;;2.90;99.90;;;;;;5069249;28;20423;-88
2022/01/31 11:33:19;;;;;;;0.30;0.10;;;3.00;99.90;;;;;;5085344;28;20459;-87
2022/01/31 11:35:48;;;;;;;0.30;0.10;;;3.00;99.90;;;;;;5071399;28;20905;-87
2022/01/31 11:38:16;;;;;;;0.30;0.20;;;3.00;99.90;;;;;;5066908;28;20489;-90
2022/01/31 11:40:43;;;;;;;0.30;0.10;;;3.00;99.90;;;;;;5051842;28;20448;-88
2022/01/31 11:43:11;;;;;;;0.30;0.10;;;3.00;99.90;;;;;;5049568;28;20466;-88
2022/01/31 11:45:41;;;;;;;0.30;0.10;;;3.00;99.90;;;;;;5049821;28;20467;-88
2022/01/31 11:48:13;;;;;;;0.30;0.10;;;3.20;99.90;;;;;;5052333;28;21222;-89
2022/01/31 11:50:44;;;;;;;0.30;0.10;;;3.20;99.90;;;;;;5053850;28;20522;-88
2022/01/31 11:53:11;;;;;;;0.30;0.10;;;3.20;99.90;;;;;;5061003;28;20475;-90
2022/01/31 11:55:39;;;;;;;0.30;0.10;;;3.10;99.90;;;;;;5050821;28;20472;-88
2022/01/31 11:58:08;;;;;;;0.30;0.10;;;3.20;99.90;;;;;;5065265;28;20481;-89
2022/01/31 12:00:38;;;;;;;0.30;0.10;;;3.10;99.90;;;;;;5063644;28;20487;-88
2022/01/31 12:03:06;;;;;;;0.30;0.20;;;3.10;99.90;;;;;;5070121;28;20523;-88
2022/01/31 12:05:36;;;;;;;0.40;0.20;;;3.00;99.90;;;;;;5062633;28;20456;-88
2022/01/31 12:08:05;;;;;;;0.30;0.10;;;3.00;99.90;;;;;;5053820;28;20467;-88
2022/01/31 12:10:35;;;;;;;0.30;0.10;;;2.90;99.90;;;;;;5030882;28;20446;-88
2022/01/31 12:13:15;;;;;;;0.30;0.10;;;2.90;99.90;;;;;;5035906;28;20460;-89
2022/01/31 12:15:57;;;;;;;0.30;0.10;;;2.90;99.90;;;;;;5049286;28;20451;-88
2022/01/31 12:24:08;;;;;;;0.30;0.10;;;3.00;99.90;;;;;;5030476;28;20515;-89
2022/01/31 12:26:54;;;;;;;0.30;0.10;;;3.00;99.90;;;;;;5030193;28;20480;-88
2022/01/31 12:29:23;;;;;;;0.30;0.20;;;3.10;99.90;;;;;;5037497;28;20464;-89
2022/01/31 12:31:53;;;;;;;0.30;0.20;;;3.20;99.90;;;;;;5046557;28;20494;-87
2022/01/31 12:34:44;;;;;;;0.30;0.10;;;3.20;99.90;;;;;;5052552;28;20874;-90
2022/01/31 12:37:34;;;;;;;0.30;0.10;;;3.30;99.90;;;;;;5063717;28;20567;-88
2022/01/31 12:40:10;;;;;;;0.30;0.10;;;3.30;99.90;;;;;;5043866;28;20490;-88
2022/01/31 12:42:52;;;;;;;0.30;0.10;;;3.30;99.90;;;;;;5048466;28;20546;-89
2022/01/31 12:45:21;;;;;;;0.30;0.10;;;3.30;99.90;;;;;;5049731;28;20451;-89
2022/01/31 12:48:15;;;;;;;0.30;0.10;;;3.40;99.90;;;;;;5048923;28;20464;-88
2022/01/31 12:50:45;;;;;;;0.30;0.10;;;3.60;99.90;;;;;;5048792;28;20444;-89
2022/01/31 12:53:48;;;;;;;0.30;0.10;;;3.80;99.90;;;;;;5049161;28;20494;-89
2022/01/31 12:56:36;;;;;;;0.30;0.10;;;3.70;99.90;;;;;;5048703;28;20956;-87
2022/01/31 12:59:14;;;;;;;0.30;0.10;;;3.70;99.90;;;;;;5056772;28;20482;-88
2022/01/31 13:01:46;;;;;;;0.30;0.10;;;3.70;99.90;;;;;;5063686;28;20459;-91
2022/01/31 13:04:17;;;;;;;0.30;0.10;;;3.80;99.90;;;;;;5072237;28;20444;-90
2022/01/31 13:06:46;;;;;;;0.30;0.13;;;3.90;99.90;;;;;;5069044;28;20437;-92
2022/01/31 13:09:17;;;;;;;0.30;0.10;;;3.90;99.90;;;;;;5093259;28;20476;-91
2022/01/31 13:11:46;;;;;;;0.30;0.10;;;3.90;99.90;;;;;;5090693;28;20444;-89
2022/01/31 13:14:19;;;;;;;0.30;0.10;;;4.00;99.90;;;;;;5086586;28;20471;-92
2022/01/31 13:16:57;;;;;;;0.30;0.10;;;4.10;99.90;;;;;;5080742;28;20456;-88
2022/01/31 13:19:25;;;;;;;0.30;0.10;;;4.20;99.90;;;;;;5058459;28;20475;-88
2022/01/31 13:21:54;;;;;;;0.30;0.20;;;4.20;99.90;;;;;;5057489;28;20445;-89
2022/01/31 13:24:37;;;;;;;0.30;0.10;;;4.20;99.90;;;;;;5060017;28;20441;-88
2022/01/31 13:27:05;;;;;;;0.30;0.10;;;4.20;99.90;;;;;;5056548;28;20855;-87
2022/01/31 13:29:38;;;;;;;0.30;0.10;;;4.30;99.90;;;;;;5061655;28;20448;-88